Time;durP1;ratioP1;P1;durP2;ratioP2;P2;SDS_P1;SDS_P2;PMS_P1;PMS_P2;Temp;Humidity;BMP_temperature;BMP_pressure;BME280_temperature;BME280_humidity;BME280_pressure;Samples;Min_cycle;Max_cycle;Signal;HPM_P1;HPM_P2
2022/08/22 00:01:57;;;;;;;1.60;1.50;;;;;;;16.26;72.64;101539.88;5072476;28;20543;-82
2022/08/22 00:04:40;;;;;;;1.02;1.02;;;;;;;16.26;72.49;101539.88;5072547;28;20025;-82
2022/08/22 00:07:33;;;;;;;1.65;1.50;;;;;;;16.24;72.77;101533.81;5054438;28;20059;-82
2022/08/22 00:10:23;;;;;;;1.35;1.20;;;;;;;16.25;72.94;101535.53;5052334;28;20112;-82
2022/08/22 00:13:03;;;;;;;1.25;1.25;;;;;;;16.24;72.78;101539.03;5032389;28;20559;-81
2022/08/22 00:16:11;;;;;;;1.40;1.30;;;;;;;16.23;73.04;101539.94;5032833;28;20393;-82
2022/08/22 00:18:52;;;;;;;1.33;1.23;;;;;;;16.20;73.21;101538.28;5032503;28;20033;-82
2022/08/22 00:21:28;;;;;;;1.40;1.30;;;;;;;16.20;73.32;101543.50;5031928;28;20389;-82
2022/08/22 00:24:18;;;;;;;1.40;1.30;;;;;;;16.20;73.30;101540.91;5032190;28;20058;-81
2022/08/22 00:26:54;;;;;;;1.50;1.40;;;;;;;16.21;73.37;101534.75;5032609;28;20033;-82
2022/08/22 00:29:29;;;;;;;1.48;1.38;;;;;;;16.22;73.38;101536.47;5038212;28;20131;-82
2022/08/22 00:32:26;;;;;;;2.08;1.30;;;;;;;16.24;73.51;101536.44;5056987;28;20036;-82
2022/08/22 00:35:12;;;;;;;1.70;1.60;;;;;;;16.23;73.48;101538.19;4998448;28;20051;-82
2022/08/22 00:37:50;;;;;;;;;;;;;;;16.23;73.63;101532.97;5054375;28;20021;-82
2022/08/22 00:40:35;;;;;;;1.90;1.50;;;;;;;16.23;73.59;101532.97;5072563;28;19917;-82
2022/08/22 00:43:30;;;;;;;1.73;1.50;;;;;;;16.23;73.68;101539.94;5075245;28;20033;-82
2022/08/22 00:46:11;;;;;;;1.30;1.30;;;;;;;16.22;73.65;101536.47;5076052;28;20386;-81
2022/08/22 00:49:04;;;;;;;1.60;1.50;;;;;;;16.21;73.80;101540.84;5075404;28;20067;-81
2022/08/22 00:52:03;;;;;;;1.67;1.58;;;;;;;16.20;73.91;101536.53;5076016;28;20078;-82
2022/08/22 00:54:44;;;;;;;1.63;1.42;;;;;;;16.20;73.84;101547.00;5076153;28;20028;-82
2022/08/22 00:57:22;;;;;;;1.48;1.38;;;;;;;16.21;74.07;101546.06;5074775;28;20049;-82
2022/08/22 01:00:13;;;;;;;1.55;1.45;;;;;;;16.23;74.23;101543.44;5075541;28;20025;-82
2022/08/22 01:02:54;;;;;;;1.70;1.60;;;;;;;16.23;74.47;101539.94;5074498;28;20030;-82
2022/08/22 01:05:38;;;;;;;1.23;1.23;;;;;;;16.25;74.37;101543.38;5057597;28;20033;-82
2022/08/22 01:08:33;;;;;;;1.48;1.38;;;;;;;16.22;74.38;101539.09;5055528;28;20040;-81
2022/08/22 01:11:20;;;;;;;1.40;1.30;;;;;;;16.19;74.58;101540.06;5054812;28;20025;-81
2022/08/22 01:14:21;;;;;;;1.38;1.27;;;;;;;16.18;74.63;101535.72;5055591;28;20272;-82
2022/08/22 01:17:21;;;;;;;1.05;1.05;;;;;;;16.17;74.94;101534.00;5054812;28;20037;-82
2022/08/22 01:20:31;;;;;;;1.30;1.30;;;;;;;16.17;74.76;101531.38;5055779;28;20032;-82
2022/08/22 01:22:56;;;;;;;1.45;1.35;;;;;;;16.17;74.88;101526.13;4993680;28;20530;-82
2022/08/22 01:26:06;;;;;;;1.30;1.30;;;;;;;16.16;75.00;101529.66;4993256;28;20037;-82
2022/08/22 01:29:02;;;;;;;1.27;1.17;;;;;;;16.16;75.06;101532.28;5044875;28;20056;-82
2022/08/22 01:32:18;;;;;;;2.20;1.52;;;;;;;16.16;75.00;101539.25;5071983;28;20055;-82
2022/08/22 01:34:52;;;;;;;1.55;1.42;;;;;;;16.17;75.23;101539.22;5055053;28;20060;-82
2022/08/22 01:37:57;;;;;;;1.40;1.30;;;;;;;16.16;75.25;101536.63;5055164;28;20150;-82
2022/08/22 01:40:57;;;;;;;1.67;1.58;;;;;;;16.16;75.18;101532.28;5055582;28;20029;-82
2022/08/22 01:43:40;;;;;;;1.65;1.55;;;;;;;16.17;75.19;101527.88;5054762;28;20025;-82
2022/08/22 01:46:26;;;;;;;1.88;1.67;;;;;;;16.14;75.35;101533.22;5053837;28;20033;-82
2022/08/22 01:49:01;;;;;;;;;;;;;;;16.13;75.32;101524.50;5054740;28;20033;-82
2022/08/22 01:51:37;;;;;;;1.70;1.60;;;;;;;16.14;75.38;101528.84;5054231;28;20003;-82
2022/08/22 01:54:20;;;;;;;1.70;1.60;;;;;;;16.16;75.31;101534.00;5070380;28;20306;-82
2022/08/22 01:56:47;;;;;;;1.95;1.80;;;;;;;16.15;75.38;101527.94;5072190;28;20046;-82
2022/08/22 01:59:23;;;;;;;1.77;1.60;;;;;;;16.15;75.43;101532.31;5072133;28;20036;-82
2022/08/22 02:01:48;;;;;;;1.88;1.55;;;;;;;16.15;75.43;101524.47;5069308;28;20074;-82
2022/08/22 02:04:41;;;;;;;1.70;1.60;;;;;;;16.16;75.36;101527.03;5054445;28;20044;-82
2022/08/22 02:07:13;;;;;;;1.95;1.80;;;;;;;16.17;75.31;101531.38;5053935;28;20428;-82
2022/08/22 02:09:47;;;;;;;1.73;1.63;;;;;;;16.17;75.33;101527.88;5054672;28;20036;-81
2022/08/22 02:12:25;;;;;;;1.80;1.70;;;;;;;16.16;75.33;101527.03;5074155;28;20457;-82
2022/08/22 02:15:11;;;;;;;2.38;2.00;;;;;;;16.15;75.44;101530.56;5073726;28;20032;-82
2022/08/22 02:17:51;;;;;;;1.90;1.80;;;;;;;16.16;75.42;101523.53;5074695;28;20029;-82
2022/08/22 02:20:24;;;;;;;2.20;2.00;;;;;;;16.15;75.45;101524.47;5073537;28;20483;-82
2022/08/22 02:22:59;;;;;;;2.10;1.90;;;;;;;16.16;75.51;101520.91;5074158;28;20611;-82
2022/08/22 02:25:33;;;;;;;1.70;1.60;;;;;;;16.17;75.69;101528.75;5074363;28;20028;-82
2022/08/22 02:28:13;;;;;;;1.80;1.70;;;;;;;16.17;75.58;101522.63;5073232;28;20465;-82
2022/08/22 02:30:51;;;;;;;1.80;1.70;;;;;;;16.17;75.47;101520.03;5062565;28;20036;-82
2022/08/22 02:33:44;;;;;;;2.03;1.70;;;;;;;16.19;75.54;101523.47;5054104;28;20031;-82
2022/08/22 02:36:24;;;;;;;1.90;1.80;;;;;;;16.19;75.63;101513.00;5053510;28;20040;-82
2022/08/22 02:39:14;;;;;;;1.90;1.70;;;;;;;16.18;75.76;101513.88;5062011;28;20036;-81
2022/08/22 02:41:50;;;;;;;1.75;1.65;;;;;;;16.18;75.53;101517.38;5073507;28;20419;-82
2022/08/22 02:44:25;;;;;;;1.70;1.60;;;;;;;16.19;76.56;101513.88;5065232;28;20068;-82
2022/08/22 02:47:14;;;;;;;2.15;1.70;;;;;;;16.19;75.81;101519.09;5053287;28;20283;-82
2022/08/22 02:49:56;;;;;;;1.92;1.83;;;;;;;16.19;75.38;101513.00;5053318;28;20443;-82
2022/08/22 02:52:31;;;;;;;1.85;1.70;;;;;;;16.21;75.51;101513.81;5053853;28;20033;-82
2022/08/22 02:55:06;;;;;;;1.80;1.70;;;;;;;16.21;75.83;101511.19;5052457;28;20124;-82
2022/08/22 02:57:52;;;;;;;2.10;1.90;;;;;;;16.20;75.76;101520.81;5068176;28;20107;-82
2022/08/22 03:00:21;;;;;;;;;;;;;;;16.23;75.62;101513.75;5065128;28;20052;-82
2022/08/22 03:02:55;;;;;;;3.17;2.10;;;;;;;16.19;76.04;101513.00;5052865;28;20371;-82
2022/08/22 03:05:35;;;;;;;2.13;2.00;;;;;;;16.19;75.90;101510.38;5053425;28;20040;-82
2022/08/22 03:08:27;;;;;;;2.63;2.13;;;;;;;16.17;76.43;101509.53;5053386;28;20052;-82
2022/08/22 03:11:01;;;;;;;2.28;2.10;;;;;;;16.15;75.87;101512.22;5052353;28;20052;-82
2022/08/22 03:14:04;;;;;;;2.85;2.05;;;;;;;16.17;75.78;101512.16;5052977;28;20094;-82
2022/08/22 03:17:05;;;;;;;2.15;1.98;;;;;;;16.18;75.82;101516.50;5052677;28;20063;-82
2022/08/22 03:19:54;;;;;;;2.10;1.95;;;;;;;16.17;75.75;101510.44;5053094;28;20025;-82
2022/08/22 03:22:32;;;;;;;3.28;2.10;;;;;;;16.17;75.80;101506.94;5052957;28;20500;-82
2022/08/22 03:25:17;;;;;;;2.53;1.88;;;;;;;16.15;75.97;101499.13;5107582;22;20067;-82
2022/08/22 03:27:53;;;;;;;2.10;1.90;;;;;;;16.13;75.98;101500.09;5052659;28;20090;-82
2022/08/22 03:30:26;;;;;;;1.88;1.77;;;;;;;16.09;75.71;101496.69;5052405;28;20100;-82
2022/08/22 03:33:11;;;;;;;1.80;1.70;;;;;;;16.03;76.13;101492.50;5053020;28;20036;-81
2022/08/22 03:35:45;;;;;;;1.90;1.80;;;;;;;16.02;76.19;101492.50;5053145;28;20052;-82
2022/08/22 03:38:32;;;;;;;2.10;1.90;;;;;;;15.99;76.13;101493.47;5051427;28;20035;-82
2022/08/22 03:41:31;;;;;;;1.80;1.70;;;;;;;15.96;76.25;101482.22;5052870;28;20025;-82
2022/08/22 03:44:31;;;;;;;1.92;1.83;;;;;;;15.93;76.28;101484.91;5051972;28;20473;-81
2022/08/22 03:47:25;;;;;;;2.00;1.80;;;;;;;15.88;76.29;101491.13;5052466;28;20229;-82
2022/08/22 03:50:20;;;;;;;3.35;2.13;;;;;;;15.85;76.43;101487.75;5052183;28;20036;-82
2022/08/22 03:53:06;;;;;;;2.05;1.95;;;;;;;15.80;76.48;101487.00;5052132;28;20036;-81
2022/08/22 03:56:09;;;;;;;2.13;1.90;;;;;;;15.74;76.63;101481.00;5052968;28;20415;-82
2022/08/22 03:59:09;;;;;;;1.85;1.75;;;;;;;15.67;76.55;101476.84;5051743;28;20028;-82
2022/08/22 04:01:34;;;;;;;2.00;1.90;;;;;;;15.64;76.80;101483.94;5052563;28;20021;-83
2022/08/22 04:04:45;;;;;;;2.20;2.00;;;;;;;15.59;76.74;101481.44;5052574;28;20029;-83
2022/08/22 04:07:17;;;;;;;2.53;1.95;;;;;;;15.54;76.85;101478.06;5051656;28;20025;-83
2022/08/22 04:09:50;;;;;;;2.40;2.20;;;;;;;15.49;76.95;101472.94;5052565;28;20052;-79
2022/08/22 04:12:47;;;;;;;2.70;2.10;;;;;;;15.46;76.95;101483.47;5052578;28;20017;-79
2022/08/22 04:15:32;;;;;;;2.40;2.20;;;;;;;15.41;76.86;101482.75;5056250;28;20615;-79
2022/08/22 04:18:20;;;;;;;2.65;2.30;;;;;;;15.37;77.19;101481.09;5056325;28;20037;-80
2022/08/22 04:21:05;;;;;;;3.17;2.13;;;;;;;15.32;77.48;101489.06;5056146;28;20037;-79
2022/08/22 04:23:30;;;;;;;2.50;2.30;;;;;;;15.29;77.22;101492.63;5056248;28;20021;-79
2022/08/22 04:26:12;;;;;;;2.70;2.40;;;;;;;15.28;77.38;101497.88;5055598;28;20056;-80
2022/08/22 04:28:43;;;;;;;2.50;2.30;;;;;;;15.26;77.64;101497.94;5056398;28;20064;-80
2022/08/22 04:31:11;;;;;;;2.30;2.10;;;;;;;15.27;77.41;101504.00;5056349;28;20028;-79
2022/08/22 04:33:59;;;;;;;2.22;2.03;;;;;;;15.29;77.62;101502.22;5055648;28;20025;-79
2022/08/22 04:36:31;;;;;;;2.70;2.25;;;;;;;15.29;77.61;101499.59;5056397;28;20021;-80
2022/08/22 04:38:59;;;;;;;2.30;2.10;;;;;;;15.30;77.53;101501.31;5055803;28;20017;-79
2022/08/22 04:41:45;;;;;;;2.30;2.10;;;;;;;15.33;77.81;101500.38;5055219;28;20025;-80
2022/08/22 04:44:14;;;;;;;2.13;2.00;;;;;;;15.32;77.70;101503.88;5055879;28;20064;-80
2022/08/22 04:46:52;;;;;;;2.28;2.08;;;;;;;15.31;77.86;101494.34;5056318;28;20029;-81
2022/08/22 04:49:23;;;;;;;3.20;2.20;;;;;;;15.30;77.94;101496.09;5054926;28;20044;-82
2022/08/22 04:52:28;;;;;;;1.88;1.77;;;;;;;15.29;77.95;101494.38;5056111;28;20017;-81
2022/08/22 04:55:16;;;;;;;2.35;2.13;;;;;;;15.29;78.30;101508.31;4954683;29;20046;-82
2022/08/22 04:57:55;;;;;;;2.10;1.90;;;;;;;15.29;78.04;101503.09;5067330;23;20041;-82
2022/08/22 05:00:21;;;;;;;1.90;1.77;;;;;;;15.29;78.14;101515.28;5075546;28;20032;-82
2022/08/22 05:02:55;;;;;;;2.00;1.90;;;;;;;15.31;78.37;101520.50;5074593;28;20032;-83
2022/08/22 05:05:34;;;;;;;2.00;1.90;;;;;;;15.32;78.46;101515.22;5075070;28;20469;-84
2022/08/22 05:08:01;;;;;;;2.00;1.90;;;;;;;15.34;78.35;101513.44;5075497;28;20103;-83
2022/08/22 05:10:34;;;;;;;2.10;1.90;;;;;;;15.38;78.47;101516.81;5075039;28;20028;-84
2022/08/22 05:13:10;;;;;;;1.70;1.60;;;;;;;15.42;78.87;101518.47;5075527;28;20566;-84
2022/08/22 05:15:42;;;;;;;1.75;1.65;;;;;;;15.43;78.63;101517.56;5074696;28;20031;-84
2022/08/22 05:18:13;;;;;;;2.03;1.90;;;;;;;15.46;78.83;101519.25;5066181;28;20029;-84
2022/08/22 05:20:44;;;;;;;2.55;1.80;;;;;;;15.49;78.80;101514.81;5055483;28;20530;-84
2022/08/22 05:23:21;;;;;;;2.30;1.90;;;;;;;15.53;78.69;101513.84;5062757;28;20036;-84
2022/08/22 05:25:52;;;;;;;4.03;2.10;;;;;;;15.54;79.17;101518.16;5074844;28;20034;-83
2022/08/22 05:28:37;;;;;;;2.88;2.40;;;;;;;15.56;79.89;101516.34;5075513;28;20372;-84
2022/08/22 05:31:07;;;;;;;3.17;2.30;;;;;;;15.61;79.04;101516.25;5074560;28;20074;-84
2022/08/22 05:33:41;;;;;;;3.40;2.20;;;;;;;15.66;78.92;101524.84;5062971;28;20492;-84
2022/08/22 05:36:18;;;;;;;2.00;1.80;;;;;;;15.71;79.00;101527.34;5054883;28;20064;-83
2022/08/22 05:38:49;;;;;;;2.00;1.80;;;;;;;15.77;79.29;101519.31;5054318;28;20029;-84
2022/08/22 05:41:23;;;;;;;1.90;1.77;;;;;;;15.83;79.11;101534.88;5055076;28;20021;-84
2022/08/22 05:43:49;;;;;;;2.38;1.90;;;;;;;15.88;78.92;101525.16;5058158;28;20036;-84
2022/08/22 05:46:39;;;;;;;2.25;2.05;;;;;;;15.96;78.97;101534.59;5055274;28;20453;-84
2022/08/22 05:49:16;;;;;;;1.80;1.70;;;;;;;16.00;78.76;101536.19;5055871;28;20112;-82
2022/08/22 05:52:02;;;;;;;1.80;1.70;;;;;;;16.06;79.04;101533.44;5054236;28;20025;-84
2022/08/22 05:54:33;;;;;;;1.70;1.60;;;;;;;16.11;79.16;101539.38;5065237;28;20400;-84
2022/08/22 05:57:13;;;;;;;1.90;1.80;;;;;;;16.15;78.99;101532.31;5054698;28;20052;-84
2022/08/22 05:59:41;;;;;;;4.70;2.70;;;;;;;16.16;79.58;101526.16;5062444;28;20107;-84
2022/08/22 06:02:09;;;;;;;3.20;2.88;;;;;;;16.17;80.99;101531.38;5073940;28;20040;-85
2022/08/22 06:04:48;;;;;;;5.28;3.10;;;;;;;16.17;79.96;101526.13;5057548;28;20549;-84
2022/08/22 06:07:37;;;;;;;5.90;3.60;;;;;;;16.17;81.40;101522.63;5052198;28;20111;-84
2022/08/22 06:10:15;;;;;;;6.85;4.10;;;;;;;16.18;80.47;101527.84;5054527;28;20428;-83
2022/08/22 06:12:51;;;;;;;5.13;3.13;;;;;;;16.23;80.30;101527.72;5055347;28;20071;-82
2022/08/22 06:15:22;;;;;;;4.18;3.10;;;;;;;16.29;80.30;101531.94;5072554;28;20056;-82
2022/08/22 06:17:53;;;;;;;4.40;2.53;;;;;;;16.33;79.87;101533.53;5072157;28;20108;-81
2022/08/22 06:20:22;;;;;;;2.63;2.42;;;;;;;16.39;79.99;101528.16;5054320;28;20025;-82
2022/08/22 06:22:53;;;;;;;3.03;2.53;;;;;;;16.43;80.96;101529.78;5055415;28;20165;-82
2022/08/22 06:25:32;;;;;;;4.57;3.13;;;;;;;16.48;79.28;101532.25;5060266;28;20116;-82
2022/08/22 06:28:02;;;;;;;2.80;2.60;;;;;;;16.58;79.01;101536.34;5064492;28;20372;-82
2022/08/22 06:30:28;;;;;;;2.90;2.60;;;;;;;16.70;79.31;101534.25;5066927;28;20024;-82
2022/08/22 06:32:59;;;;;;;2.55;2.28;;;;;;;16.75;78.48;101541.06;5056598;28;20120;-82
2022/08/22 06:36:29;;;;;;;4.68;3.35;;;;;;;16.80;80.04;101539.16;5053464;28;20060;-82
2022/08/22 06:38:32;;;;;;;5.68;3.60;;;;;;;16.81;79.09;101540.03;5058588;28;20074;-82
2022/08/22 06:41:01;;;;;;;7.13;3.60;;;;;;;16.86;80.43;101545.97;5072785;28;20025;-81
2022/08/22 06:43:37;;;;;;;8.20;4.40;;;;;;;16.88;79.18;101535.47;5070495;28;20123;-83
2022/08/22 06:46:04;;;;;;;5.72;3.40;;;;;;;16.93;78.77;101544.91;5063662;28;20017;-83
2022/08/22 06:48:30;;;;;;;3.42;2.67;;;;;;;16.99;78.34;101546.50;5069868;28;20412;-82
2022/08/22 06:50:57;;;;;;;2.97;2.60;;;;;;;17.05;78.58;101541.06;5073502;28;20024;-83
2022/08/22 06:53:33;;;;;;;2.38;2.17;;;;;;;17.13;78.43;101546.06;5073563;28;20032;-83
2022/08/22 06:56:08;;;;;;;2.50;2.10;;;;;;;17.21;78.78;101546.66;5072677;28;20062;-84
2022/08/22 07:01:26;;;;;;;8.38;4.55;;;;;;;17.24;79.77;101559.69;5061082;22;20116;-83
2022/08/22 07:03:54;;;;;;;11.68;5.57;;;;;;;17.21;78.92;101565.03;5052923;28;20373;-83
2022/08/22 07:06:33;;;;;;;4.40;3.40;;;;;;;17.27;78.58;101558.72;5053501;28;20047;-82
2022/08/22 07:08:59;;;;;;;4.78;3.10;;;;;;;17.33;78.39;101563.81;5064626;28;20039;-82
2022/08/22 07:11:28;;;;;;;3.10;2.80;;;;;;;17.40;78.54;101565.31;5073608;28;20024;-83
2022/08/22 07:14:04;;;;;;;6.00;3.78;;;;;;;17.43;78.53;101565.22;5073135;28;20498;-83
2022/08/22 07:16:32;;;;;;;;;;;;;;;17.47;78.06;101565.97;5073024;28;20028;-83
2022/08/22 07:18:58;;;;;;;3.53;2.65;;;;;;;17.53;78.82;101563.13;5072906;28;19920;-83
2022/08/22 07:21:28;;;;;;;3.65;2.60;;;;;;;17.59;77.98;101567.31;5071515;28;20384;-83
2022/08/22 07:23:54;;;;;;;2.50;2.30;;;;;;;17.65;77.78;101572.38;5072357;28;20020;-83
2022/08/22 07:26:31;;;;;;;4.43;2.40;;;;;;;17.69;77.99;101568.72;5073428;28;20031;-83
2022/08/22 07:29:20;;;;;;;2.35;2.10;;;;;;;17.77;77.88;101568.47;5072990;28;20117;-83
2022/08/22 07:31:58;;;;;;;3.35;2.40;;;;;;;17.84;78.69;101566.50;5072658;28;20021;-83
2022/08/22 07:35:07;;;;;;;7.22;4.03;;;;;;;17.88;77.68;101562.88;5073216;28;20028;-83
2022/08/22 07:37:51;;;;;;;4.68;3.10;;;;;;;17.96;78.20;101571.31;5070502;28;20123;-83
2022/08/22 07:40:33;;;;;;;9.32;4.95;;;;;;;18.03;77.87;101556.25;5073133;28;20035;-83
2022/08/22 07:43:26;;;;;;;11.27;5.80;;;;;;;18.11;77.80;101555.97;5072445;28;20028;-82
2022/08/22 07:45:57;;;;;;;10.52;5.50;;;;;;;18.27;78.06;101540.50;5072870;28;20021;-83
2022/08/22 07:48:29;;;;;;;7.13;4.60;;;;;;;18.58;77.04;101542.00;5072442;28;20024;-83
2022/08/22 07:51:02;;;;;;;10.82;5.32;;;;;;;18.91;76.88;101539.84;5072036;28;20024;-83
2022/08/22 07:53:53;;;;;;;7.18;4.55;;;;;;;19.27;75.58;101541.94;5073070;28;20032;-83
2022/08/22 07:56:23;;;;;;;8.18;4.85;;;;;;;19.61;73.25;101542.31;5073051;28;20024;-83
2022/08/22 07:58:57;;;;;;;14.63;7.32;;;;;;;19.80;73.69;101545.03;5072038;28;20031;-83
2022/08/22 08:01:25;;;;;;;17.52;9.20;;;;;;;19.93;72.40;101544.53;5070797;28;20056;-83
2022/08/22 08:03:58;;;;;;;10.45;5.93;;;;;;;20.07;73.35;101544.75;5072711;28;20380;-83
2022/08/22 08:06:25;;;;;;;9.38;4.70;;;;;;;20.27;71.80;101538.59;5065048;28;20429;-83
2022/08/22 08:08:53;;;;;;;10.30;5.57;;;;;;;20.44;72.60;101543.13;5052368;28;20565;-83
2022/08/22 08:11:21;;;;;;;9.73;5.47;;;;;;;20.58;72.14;101536.34;5051580;28;20072;-83
2022/08/22 08:13:53;;;;;;;8.70;5.22;;;;;;;20.73;71.40;101530.34;5052830;28;20029;-83
2022/08/22 08:16:23;;;;;;;5.75;3.70;;;;;;;20.91;71.70;101527.81;5052623;28;20063;-83
2022/08/22 08:18:52;;;;;;;5.00;3.75;;;;;;;21.09;71.26;101532.19;5051789;28;20117;-83
2022/08/22 08:21:28;;;;;;;4.22;3.40;;;;;;;21.25;71.60;101532.28;5053584;28;20400;-82
2022/08/22 08:23:54;;;;;;;4.38;2.95;;;;;;;21.46;70.38;101529.47;5051901;28;20032;-83
2022/08/22 08:26:21;;;;;;;;;;;;;;;21.64;70.91;101519.81;5051782;28;20108;-83
2022/08/22 08:28:49;;;;;;;8.07;4.50;;;;;;;21.73;69.27;101523.78;5052682;28;19916;-82
2022/08/22 08:31:23;;;;;;;4.22;3.30;;;;;;;21.66;67.96;101525.03;5052467;28;20036;-83
2022/08/22 08:33:57;;;;;;;8.70;5.03;;;;;;;21.53;66.98;101525.63;5052496;28;20021;-83
2022/08/22 08:36:35;;;;;;;9.10;4.85;;;;;;;21.44;69.15;101519.00;5052320;28;20397;-83
2022/08/22 08:39:14;;;;;;;9.48;5.10;;;;;;;21.42;66.66;101525.31;5052148;28;20020;-83
2022/08/22 08:41:51;;;;;;;7.03;3.80;;;;;;;21.42;68.70;101526.16;5051695;28;20025;-83
2022/08/22 08:44:28;;;;;;;4.22;2.95;;;;;;;21.54;68.34;101529.97;5052264;28;20033;-83
2022/08/22 08:47:30;;;;;;;12.23;7.10;;;;;;;21.54;67.98;101527.34;5051125;28;20143;-83
2022/08/22 08:50:24;;;;;;;6.90;4.47;;;;;;;21.68;68.48;101524.00;5051986;28;20504;-83
2022/08/22 08:53:01;;;;;;;5.35;3.60;;;;;;;21.89;68.21;101518.53;5052975;28;20473;-83
2022/08/22 08:55:56;;;;;;;7.75;3.95;;;;;;;22.02;64.74;101518.72;5062424;28;20033;-83
2022/08/22 08:58:31;;;;;;;6.13;3.90;;;;;;;22.03;67.49;101518.66;5035426;28;20036;-82
2022/08/22 09:01:10;;;;;;;3.50;2.90;;;;;;;22.11;68.12;101520.03;5074697;28;20059;-83
2022/08/22 09:04:07;;;;;;;3.95;2.90;;;;;;;22.18;67.89;101516.16;5058741;28;20047;-82
2022/08/22 09:07:15;;;;;;;3.00;2.40;;;;;;;22.29;68.00;101511.09;5049221;28;20052;-83
2022/08/22 09:10:07;;;;;;;3.72;2.70;;;;;;;22.35;66.86;101510.78;5054691;28;20063;-83
2022/08/22 09:12:51;;;;;;;8.82;4.50;;;;;;;22.32;64.68;101507.47;5048322;28;20036;-83
2022/08/22 09:15:38;;;;;;;7.65;4.32;;;;;;;22.25;62.53;101506.06;5033002;28;20584;-83
2022/08/22 09:18:27;;;;;;;8.10;3.85;;;;;;;22.24;65.09;101502.59;5033869;28;20041;-83
2022/08/22 09:21:20;;;;;;;5.97;3.42;;;;;;;22.34;65.36;101501.16;5040970;28;20024;-83
2022/08/22 09:24:04;;;;;;;10.10;5.18;;;;;;;22.32;64.25;101505.66;5053035;28;20107;-83
2022/08/22 09:26:54;;;;;;;5.50;3.60;;;;;;;22.35;64.64;101497.56;5053154;28;20029;-83
2022/08/22 09:29:36;;;;;;;7.93;4.30;;;;;;;22.39;63.64;101498.25;5052801;28;20025;-84
2022/08/22 09:32:20;;;;;;;5.72;3.40;;;;;;;22.44;64.52;101500.66;5056082;28;20426;-84
2022/08/22 09:35:03;;;;;;;2.63;2.38;;;;;;;22.52;64.67;101503.75;5055094;28;20113;-84
2022/08/22 09:37:57;;;;;;;12.18;5.35;;;;;;;22.50;59.69;101506.47;5054480;28;20021;-84
2022/08/22 09:40:36;;;;;;;11.43;5.47;;;;;;;22.43;61.23;101501.59;5055412;28;20035;-84
2022/08/22 09:43:22;;;;;;;10.55;5.10;;;;;;;22.35;60.20;101500.22;5053753;28;20028;-84
2022/08/22 09:46:10;;;;;;;7.75;3.60;;;;;;;22.42;62.07;101497.25;5055290;28;20037;-83
2022/08/22 09:49:08;;;;;;;4.20;2.90;;;;;;;22.52;62.51;101501.09;5055052;28;20465;-84
2022/08/22 09:52:13;;;;;;;3.17;2.42;;;;;;;22.63;62.51;101505.81;5054071;28;20032;-83
2022/08/22 09:54:51;;;;;;;2.00;1.90;;;;;;;22.77;63.04;101502.38;5013520;28;20041;-84
2022/08/22 09:57:39;;;;;;;5.20;3.40;;;;;;;22.80;58.41;101502.22;5055059;28;20477;-84
2022/08/22 10:00:04;;;;;;;4.65;3.10;;;;;;;22.80;59.97;101503.03;5054367;28;20417;-84
2022/08/22 10:02:35;;;;;;;4.23;2.67;;;;;;;22.88;61.16;101502.63;5061476;28;20028;-84
2022/08/22 10:05:12;;;;;;;3.67;2.50;;;;;;;22.99;61.25;101496.72;5073815;28;20040;-83
2022/08/22 10:07:46;;;;;;;3.30;2.30;;;;;;;23.08;60.29;101492.69;5074808;28;20052;-84
2022/08/22 10:10:53;;;;;;;4.68;2.50;;;;;;;23.21;60.56;101491.03;5073395;28;20075;-84
2022/08/22 10:13:51;;;;;;;3.20;2.25;;;;;;;23.35;57.28;101486.75;5052302;28;20102;-85
2022/08/22 10:16:48;;;;;;;3.20;2.17;;;;;;;23.47;59.50;101486.00;5058378;28;20071;-84
2022/08/22 10:19:35;;;;;;;5.80;3.17;;;;;;;23.56;54.70;101487.25;5073257;28;20112;-85
2022/08/22 10:22:25;;;;;;;4.53;2.60;;;;;;;23.61;57.25;101485.16;5056829;28;20025;-84
2022/08/22 10:25:12;;;;;;;3.78;2.30;;;;;;;23.75;56.08;101474.59;5053486;28;20029;-84
2022/08/22 10:27:52;;;;;;;4.78;2.55;;;;;;;23.93;55.81;101479.69;5054501;28;20485;-84
2022/08/22 10:30:19;;;;;;;8.32;3.28;;;;;;;23.91;51.93;101473.66;5055324;28;20283;-84
2022/08/22 10:33:09;;;;;;;5.30;2.90;;;;;;;23.96;54.64;101479.53;5053454;28;20033;-84
2022/08/22 10:35:46;;;;;;;5.72;2.67;;;;;;;24.05;54.16;101471.00;5003205;28;20496;-84
2022/08/22 10:38:20;;;;;;;4.05;2.30;;;;;;;24.13;53.53;101481.16;5053813;28;20029;-84
2022/08/22 10:41:14;;;;;;;2.55;2.30;;;;;;;24.25;50.29;101473.38;5053485;28;20100;-84
2022/08/22 10:43:50;;;;;;;4.80;2.55;;;;;;;24.32;54.22;101464.94;5027741;28;20481;-84
2022/08/22 10:46:29;;;;;;;2.42;2.10;;;;;;;24.35;52.16;101467.38;5053365;28;20464;-84
2022/08/22 10:49:00;;;;;;;2.85;1.80;;;;;;;24.41;53.71;101467.94;5053785;28;20067;-84
2022/08/22 10:51:35;;;;;;;6.88;3.00;;;;;;;24.37;48.24;101454.00;5053880;28;20025;-83
2022/08/22 10:54:19;;;;;;;7.20;2.88;;;;;;;24.40;51.77;101456.47;5052705;28;20075;-83
2022/08/22 10:57:01;;;;;;;3.47;2.25;;;;;;;24.66;53.04;101454.78;5055143;28;20036;-83
2022/08/22 10:59:47;;;;;;;5.45;2.50;;;;;;;24.93;47.48;101461.06;5053614;28;20041;-83
2022/08/22 11:02:24;;;;;;;4.32;2.47;;;;;;;25.05;48.39;101457.56;5032900;28;20144;-83
2022/08/22 11:05:04;;;;;;;;;;;;;;;25.12;47.25;101453.53;5034014;28;20060;-83
2022/08/22 11:07:49;;;;;;;5.57;2.67;;;;;;;25.09;48.73;101451.13;5033428;28;19913;-83
2022/08/22 11:10:24;;;;;;;3.88;2.47;;;;;;;25.24;48.72;101454.53;5033571;28;20413;-83
2022/08/22 11:13:11;;;;;;;4.15;2.08;;;;;;;25.38;49.37;101453.59;5033509;28;20021;-82
2022/08/22 11:15:58;;;;;;;2.05;1.85;;;;;;;25.48;50.41;101452.97;5032873;28;20044;-82
2022/08/22 11:18:54;;;;;;;4.10;2.28;;;;;;;25.51;48.18;101453.59;5033417;28;20030;-83
2022/08/22 11:21:27;;;;;;;2.47;1.80;;;;;;;25.53;47.13;101459.66;5047836;28;20032;-83
2022/08/22 11:24:28;;;;;;;3.67;2.10;;;;;;;25.59;46.78;101453.06;5053273;28;20028;-83
2022/08/22 11:27:03;;;;;;;3.00;1.90;;;;;;;25.52;44.66;101452.66;5051239;28;20025;-83
2022/08/22 11:29:39;;;;;;;2.38;1.90;;;;;;;25.55;49.52;101447.13;5053476;28;20488;-83
2022/08/22 11:32:19;;;;;;;5.82;2.47;;;;;;;25.52;42.92;101447.34;5052906;28;20139;-85
2022/08/22 11:35:06;;;;;;;5.68;2.40;;;;;;;25.43;47.35;101447.97;5056226;28;20060;-85
2022/08/22 11:37:55;;;;;;;3.85;2.20;;;;;;;25.44;47.99;101449.69;5072210;28;20519;-85
2022/08/22 11:40:29;;;;;;;2.35;1.90;;;;;;;25.56;48.02;101447.97;5073223;28;20032;-85
2022/08/22 11:43:24;;;;;;;2.88;1.80;;;;;;;25.65;46.04;101442.03;5071611;28;20058;-85
2022/08/22 11:45:55;;;;;;;2.45;1.90;;;;;;;25.69;47.80;101443.50;5072552;28;20029;-84
2022/08/22 11:48:43;;;;;;;4.30;1.90;;;;;;;25.62;44.85;101434.28;5073165;28;20036;-85
2022/08/22 11:51:14;;;;;;;2.13;1.70;;;;;;;25.55;44.13;101436.50;5071917;28;20033;-85
2022/08/22 11:53:54;;;;;;;4.00;2.00;;;;;;;25.42;44.54;101435.66;5072768;28;20020;-85
2022/08/22 11:56:31;;;;;;;2.08;1.80;;;;;;;25.49;46.19;101433.41;5072245;28;20029;-86
2022/08/22 11:59:20;;;;;;;3.53;2.03;;;;;;;25.50;45.30;101429.81;5064319;28;20032;-85
2022/08/22 12:01:51;;;;;;;2.20;1.63;;;;;;;25.61;46.98;101435.22;5053010;28;20047;-84
2022/08/22 12:04:32;;;;;;;2.63;1.67;;;;;;;25.67;45.27;101420.66;5051602;28;20029;-84
2022/08/22 12:07:09;;;;;;;3.55;1.95;;;;;;;25.63;42.64;101435.97;5052357;28;20363;-84
2022/08/22 12:09:50;;;;;;;4.88;2.13;;;;;;;25.46;44.13;101441.59;5052448;28;20385;-84
2022/08/22 12:12:49;;;;;;;3.05;2.30;;;;;;;25.42;45.02;101439.19;5053200;28;20087;-85
2022/08/22 12:15:22;;;;;;;2.13;1.70;;;;;;;25.53;47.09;101440.22;5048210;28;20130;-84
2022/08/22 12:18:06;;;;;;;1.70;1.60;;;;;;;25.59;44.33;101437.13;5051981;28;20032;-85
2022/08/22 12:20:49;;;;;;;1.17;1.17;;;;;;;25.60;47.13;101428.22;5052431;28;20025;-84
2022/08/22 12:23:50;;;;;;;1.77;1.52;;;;;;;25.62;46.60;101431.63;5055563;28;20500;-84
2022/08/22 12:26:51;;;;;;;2.10;1.38;;;;;;;25.65;44.85;101435.84;5055810;28;20075;-84
2022/08/22 12:29:46;;;;;;;2.83;1.60;;;;;;;25.58;45.11;101424.81;5052400;28;20116;-84
2022/08/22 12:32:32;;;;;;;3.80;1.97;;;;;;;25.43;44.94;101429.38;5054311;28;20036;-84
2022/08/22 12:35:15;;;;;;;1.67;1.50;;;;;;;25.39;42.73;101431.38;5061231;28;20488;-85